Prairie City, Oregon
Current Conditions -  °F | °C
As of 4:55 AM on Saturday 22 Nov 2014 (Local Time) from KGCD Reporting Station
Overcast Overcast  
Wind Chill: 39°   Ceiling: 4800
Heat Index: 43°   Visibility: 10mi
Dew Point: 41°   Wind: 6mph
Humidity: 95%   Direction: 230°SW
Pressure: 29.68"   Gusts: NA
Location:  44.46°N, 118.71°W
Report Text: KGCD 221255Z AUTO 23005KT 10SM SCT036 BKN048 OVC060 06/05 A2968 RMK AO2 T00600052
Loading
Personal Weather Stations






























Interactive Weather Map New forecast layout! Learn more

10-Day Weather Forecast

Advertisements
Track Severe Weather on mobile